sensor_id;sensor_type;location;lat;lon;timestamp;temperature;humidity
78649;DHT22;67962;47.310;9.642;2024-02-28T00:00:04;10.70;69.80
78649;DHT22;67962;47.310;9.642;2024-02-28T00:02:30;10.80;69.80
78649;DHT22;67962;47.310;9.642;2024-02-28T00:04:55;10.70;69.90
78649;DHT22;67962;47.310;9.642;2024-02-28T00:07:24;10.70;69.80
78649;DHT22;67962;47.310;9.642;2024-02-28T00:09:50;10.80;69.70
78649;DHT22;67962;47.310;9.642;2024-02-28T00:12:15;10.80;69.50
78649;DHT22;67962;47.310;9.642;2024-02-28T00:14:41;10.80;69.30
78649;DHT22;67962;47.310;9.642;2024-02-28T00:17:07;10.80;69.30
78649;DHT22;67962;47.310;9.642;2024-02-28T00:19:33;10.80;69.10
78649;DHT22;67962;47.310;9.642;2024-02-28T00:21:58;10.80;69.00
78649;DHT22;67962;47.310;9.642;2024-02-28T00:24:25;10.90;69.10
78649;DHT22;67962;47.310;9.642;2024-02-28T00:26:51;10.90;69.20
78649;DHT22;67962;47.310;9.642;2024-02-28T00:29:17;10.80;69.30
78649;DHT22;67962;47.310;9.642;2024-02-28T00:31:42;10.80;69.30
78649;DHT22;67962;47.310;9.642;2024-02-28T00:34:08;10.80;69.10
78649;DHT22;67962;47.310;9.642;2024-02-28T00:36:34;10.80;68.80
78649;DHT22;67962;47.310;9.642;2024-02-28T00:39:00;10.70;69.10
78649;DHT22;67962;47.310;9.642;2024-02-28T00:41:25;10.50;69.50
78649;DHT22;67962;47.310;9.642;2024-02-28T00:43:51;10.50;70.00
78649;DHT22;67962;47.310;9.642;2024-02-28T00:46:17;10.50;70.10
78649;DHT22;67962;47.310;9.642;2024-02-28T00:48:43;10.50;70.20
78649;DHT22;67962;47.310;9.642;2024-02-28T00:51:09;10.50;70.10
78649;DHT22;67962;47.310;9.642;2024-02-28T00:53:34;10.60;70.10
78649;DHT22;67962;47.310;9.642;2024-02-28T00:56:00;10.60;70.00
78649;DHT22;67962;47.310;9.642;2024-02-28T00:58:26;10.50;70.00
78649;DHT22;67962;47.310;9.642;2024-02-28T01:00:53;10.40;70.30
78649;DHT22;67962;47.310;9.642;2024-02-28T01:03:19;10.30;70.60
78649;DHT22;67962;47.310;9.642;2024-02-28T01:05:45;10.40;70.80
78649;DHT22;67962;47.310;9.642;2024-02-28T01:08:11;10.40;70.80
78649;DHT22;67962;47.310;9.642;2024-02-28T01:10:37;10.40;70.70
78649;DHT22;67962;47.310;9.642;2024-02-28T01:13:04;10.50;70.50
78649;DHT22;67962;47.310;9.642;2024-02-28T01:15:29;10.40;70.60
78649;DHT22;67962;47.310;9.642;2024-02-28T01:17:55;10.30;70.70
78649;DHT22;67962;47.310;9.642;2024-02-28T01:20:21;10.40;70.90
78649;DHT22;67962;47.310;9.642;2024-02-28T01:22:46;10.40;70.80
78649;DHT22;67962;47.310;9.642;2024-02-28T01:25:13;10.50;70.50
78649;DHT22;67962;47.310;9.642;2024-02-28T01:27:38;10.50;70.40
78649;DHT22;67962;47.310;9.642;2024-02-28T01:30:05;10.60;70.40
78649;DHT22;67962;47.310;9.642;2024-02-28T01:32:31;10.50;70.40
78649;DHT22;67962;47.310;9.642;2024-02-28T01:34:57;10.40;70.60
78649;DHT22;67962;47.310;9.642;2024-02-28T01:37:23;10.40;70.50
78649;DHT22;67962;47.310;9.642;2024-02-28T01:39:48;10.30;70.70
78649;DHT22;67962;47.310;9.642;2024-02-28T01:42:14;10.20;70.90
78649;DHT22;67962;47.310;9.642;2024-02-28T01:44:44;10.20;71.10
78649;DHT22;67962;47.310;9.642;2024-02-28T01:47:11;10.30;71.20
78649;DHT22;67962;47.310;9.642;2024-02-28T01:49:38;10.30;71.00
78649;DHT22;67962;47.310;9.642;2024-02-28T01:52:04;10.40;70.90
78649;DHT22;67962;47.310;9.642;2024-02-28T01:54:31;10.40;71.00
78649;DHT22;67962;47.310;9.642;2024-02-28T01:56:58;10.30;71.00
78649;DHT22;67962;47.310;9.642;2024-02-28T01:59:24;10.30;71.10
78649;DHT22;67962;47.310;9.642;2024-02-28T02:01:51;10.30;71.20
78649;DHT22;67962;47.310;9.642;2024-02-28T02:04:17;10.30;71.30
78649;DHT22;67962;47.310;9.642;2024-02-28T02:06:44;10.40;71.30
78649;DHT22;67962;47.310;9.642;2024-02-28T02:09:11;10.40;71.00
78649;DHT22;67962;47.310;9.642;2024-02-28T02:11:38;10.50;70.80
78649;DHT22;67962;47.310;9.642;2024-02-28T02:14:03;10.50;70.50
78649;DHT22;67962;47.310;9.642;2024-02-28T02:16:29;10.50;70.80
78649;DHT22;67962;47.310;9.642;2024-02-28T02:18:55;10.40;70.60
78649;DHT22;67962;47.310;9.642;2024-02-28T02:21:23;10.40;70.70
78649;DHT22;67962;47.310;9.642;2024-02-28T02:23:50;10.30;70.90
78649;DHT22;67962;47.310;9.642;2024-02-28T02:26:15;10.20;71.00
78649;DHT22;67962;47.310;9.642;2024-02-28T02:28:41;10.20;71.00
78649;DHT22;67962;47.310;9.642;2024-02-28T02:31:07;10.20;71.00
78649;DHT22;67962;47.310;9.642;2024-02-28T02:33:33;10.20;71.30
78649;DHT22;67962;47.310;9.642;2024-02-28T02:35:59;10.20;71.50
78649;DHT22;67962;47.310;9.642;2024-02-28T02:38:24;10.20;71.40
78649;DHT22;67962;47.310;9.642;2024-02-28T02:40:51;10.30;71.20
78649;DHT22;67962;47.310;9.642;2024-02-28T02:43:17;10.40;71.00
78649;DHT22;67962;47.310;9.642;2024-02-28T02:45:43;10.40;70.80
78649;DHT22;67962;47.310;9.642;2024-02-28T02:48:09;10.30;70.60
78649;DHT22;67962;47.310;9.642;2024-02-28T02:50:35;10.30;71.00
78649;DHT22;67962;47.310;9.642;2024-02-28T02:53:01;10.30;71.30
78649;DHT22;67962;47.310;9.642;2024-02-28T02:55:27;10.30;71.20
78649;DHT22;67962;47.310;9.642;2024-02-28T02:57:53;10.30;71.30
78649;DHT22;67962;47.310;9.642;2024-02-28T03:00:18;10.20;71.60
78649;DHT22;67962;47.310;9.642;2024-02-28T03:02:44;10.20;71.80
78649;DHT22;67962;47.310;9.642;2024-02-28T03:05:10;10.10;71.90
78649;DHT22;67962;47.310;9.642;2024-02-28T03:07:35;10.20;71.80
78649;DHT22;67962;47.310;9.642;2024-02-28T03:10:01;10.10;71.80
78649;DHT22;67962;47.310;9.642;2024-02-28T03:12:28;10.20;72.10
78649;DHT22;67962;47.310;9.642;2024-02-28T03:14:54;10.10;71.90
78649;DHT22;67962;47.310;9.642;2024-02-28T03:17:20;10.10;72.10
78649;DHT22;67962;47.310;9.642;2024-02-28T03:19:45;10.10;72.20
78649;DHT22;67962;47.310;9.642;2024-02-28T03:22:11;10.10;72.20
78649;DHT22;67962;47.310;9.642;2024-02-28T03:24:37;10.10;72.00
78649;DHT22;67962;47.310;9.642;2024-02-28T03:27:03;10.10;72.10
78649;DHT22;67962;47.310;9.642;2024-02-28T03:29:28;10.10;72.30
78649;DHT22;67962;47.310;9.642;2024-02-28T03:31:54;10.10;72.20
78649;DHT22;67962;47.310;9.642;2024-02-28T03:34:20;10.20;72.10
78649;DHT22;67962;47.310;9.642;2024-02-28T03:36:46;10.20;73.00
78649;DHT22;67962;47.310;9.642;2024-02-28T03:39:11;10.10;72.20
78649;DHT22;67962;47.310;9.642;2024-02-28T03:41:37;10.10;72.40
78649;DHT22;67962;47.310;9.642;2024-02-28T03:44:04;10.10;72.50
78649;DHT22;67962;47.310;9.642;2024-02-28T03:46:29;10.00;72.70
78649;DHT22;67962;47.310;9.642;2024-02-28T03:48:55;10.00;72.70
78649;DHT22;67962;47.310;9.642;2024-02-28T03:51:21;9.90;73.00
78649;DHT22;67962;47.310;9.642;2024-02-28T03:53:46;9.90;73.00
78649;DHT22;67962;47.310;9.642;2024-02-28T03:56:12;10.00;72.80
78649;DHT22;67962;47.310;9.642;2024-02-28T03:58:39;10.00;72.70
78649;DHT22;67962;47.310;9.642;2024-02-28T04:01:05;10.10;72.70
78649;DHT22;67962;47.310;9.642;2024-02-28T04:03:30;10.10;72.60
78649;DHT22;67962;47.310;9.642;2024-02-28T04:05:57;10.10;72.40
78649;DHT22;67962;47.310;9.642;2024-02-28T04:08:23;10.10;72.50
78649;DHT22;67962;47.310;9.642;2024-02-28T04:10:49;10.10;72.50
78649;DHT22;67962;47.310;9.642;2024-02-28T04:13:16;10.10;71.90
78649;DHT22;67962;47.310;9.642;2024-02-28T04:15:42;10.20;70.80
78649;DHT22;67962;47.310;9.642;2024-02-28T04:18:07;10.10;71.20
78649;DHT22;67962;47.310;9.642;2024-02-28T04:20:33;10.00;71.20
78649;DHT22;67962;47.310;9.642;2024-02-28T04:22:59;10.00;71.40
78649;DHT22;67962;47.310;9.642;2024-02-28T04:25:24;10.00;71.60
78649;DHT22;67962;47.310;9.642;2024-02-28T04:27:50;10.00;71.30
78649;DHT22;67962;47.310;9.642;2024-02-28T04:30:16;10.00;71.30
78649;DHT22;67962;47.310;9.642;2024-02-28T04:32:41;10.00;71.30
78649;DHT22;67962;47.310;9.642;2024-02-28T04:35:07;10.10;71.40
78649;DHT22;67962;47.310;9.642;2024-02-28T04:37:33;10.10;71.40
78649;DHT22;67962;47.310;9.642;2024-02-28T04:40:00;10.10;71.30
78649;DHT22;67962;47.310;9.642;2024-02-28T04:42:26;10.20;71.30
78649;DHT22;67962;47.310;9.642;2024-02-28T04:44:52;10.10;71.40
78649;DHT22;67962;47.310;9.642;2024-02-28T04:47:17;10.20;71.40
78649;DHT22;67962;47.310;9.642;2024-02-28T04:49:43;10.20;71.30
78649;DHT22;67962;47.310;9.642;2024-02-28T04:52:08;10.20;71.10
78649;DHT22;67962;47.310;9.642;2024-02-28T04:54:34;10.20;71.10
78649;DHT22;67962;47.310;9.642;2024-02-28T04:57:00;10.20;71.10
78649;DHT22;67962;47.310;9.642;2024-02-28T04:59:26;10.20;71.10
78649;DHT22;67962;47.310;9.642;2024-02-28T05:01:52;10.20;71.00
78649;DHT22;67962;47.310;9.642;2024-02-28T05:04:18;10.20;71.00
78649;DHT22;67962;47.310;9.642;2024-02-28T05:06:44;10.20;70.60
78649;DHT22;67962;47.310;9.642;2024-02-28T05:09:10;10.20;70.50
78649;DHT22;67962;47.310;9.642;2024-02-28T05:11:36;10.10;70.30
78649;DHT22;67962;47.310;9.642;2024-02-28T05:14:01;10.10;70.70
78649;DHT22;67962;47.310;9.642;2024-02-28T05:16:27;10.00;70.60
78649;DHT22;67962;47.310;9.642;2024-02-28T05:18:52;10.00;70.60
78649;DHT22;67962;47.310;9.642;2024-02-28T05:21:18;10.00;70.70
78649;DHT22;67962;47.310;9.642;2024-02-28T05:23:44;10.00;70.90
78649;DHT22;67962;47.310;9.642;2024-02-28T05:26:09;10.00;71.00
78649;DHT22;67962;47.310;9.642;2024-02-28T05:28:35;9.90;71.10
78649;DHT22;67962;47.310;9.642;2024-02-28T05:31:22;9.90;71.10
78649;DHT22;67962;47.310;9.642;2024-02-28T05:33:50;9.90;70.80
78649;DHT22;67962;47.310;9.642;2024-02-28T05:36:16;9.80;71.00
78649;DHT22;67962;47.310;9.642;2024-02-28T05:38:41;9.90;71.30
78649;DHT22;67962;47.310;9.642;2024-02-28T05:41:07;9.90;71.20
78649;DHT22;67962;47.310;9.642;2024-02-28T05:43:33;9.90;70.80
78649;DHT22;67962;47.310;9.642;2024-02-28T05:45:58;9.80;70.90
78649;DHT22;67962;47.310;9.642;2024-02-28T05:48:24;9.70;71.20
78649;DHT22;67962;47.310;9.642;2024-02-28T05:50:50;9.70;71.20
78649;DHT22;67962;47.310;9.642;2024-02-28T05:53:15;9.80;71.20
78649;DHT22;67962;47.310;9.642;2024-02-28T05:55:41;9.80;71.10
78649;DHT22;67962;47.310;9.642;2024-02-28T05:58:06;9.80;71.20
78649;DHT22;67962;47.310;9.642;2024-02-28T06:00:34;9.80;71.20
78649;DHT22;67962;47.310;9.642;2024-02-28T06:03:00;9.80;71.40
78649;DHT22;67962;47.310;9.642;2024-02-28T06:05:25;9.80;70.90
78649;DHT22;67962;47.310;9.642;2024-02-28T06:07:51;9.80;71.20
78649;DHT22;67962;47.310;9.642;2024-02-28T06:10:17;9.90;71.20
78649;DHT22;67962;47.310;9.642;2024-02-28T06:12:43;9.90;71.10
78649;DHT22;67962;47.310;9.642;2024-02-28T06:15:09;9.90;71.20
78649;DHT22;67962;47.310;9.642;2024-02-28T06:17:34;10.00;71.30
78649;DHT22;67962;47.310;9.642;2024-02-28T06:20:00;10.00;71.40
78649;DHT22;67962;47.310;9.642;2024-02-28T06:22:25;10.00;71.30
78649;DHT22;67962;47.310;9.642;2024-02-28T06:24:51;10.00;71.40
78649;DHT22;67962;47.310;9.642;2024-02-28T06:27:17;9.90;71.10
78649;DHT22;67962;47.310;9.642;2024-02-28T06:29:42;9.70;71.50
78649;DHT22;67962;47.310;9.642;2024-02-28T06:32:08;9.80;71.70
78649;DHT22;67962;47.310;9.642;2024-02-28T06:34:34;9.90;72.20
78649;DHT22;67962;47.310;9.642;2024-02-28T06:36:59;10.00;71.80
78649;DHT22;67962;47.310;9.642;2024-02-28T06:39:25;10.00;71.50
78649;DHT22;67962;47.310;9.642;2024-02-28T06:41:51;10.00;71.30
78649;DHT22;67962;47.310;9.642;2024-02-28T06:44:20;10.00;71.40
78649;DHT22;67962;47.310;9.642;2024-02-28T06:46:46;10.00;71.30
78649;DHT22;67962;47.310;9.642;2024-02-28T06:49:11;10.00;71.10
78649;DHT22;67962;47.310;9.642;2024-02-28T06:51:37;10.00;71.50
78649;DHT22;67962;47.310;9.642;2024-02-28T06:54:03;9.90;71.60
78649;DHT22;67962;47.310;9.642;2024-02-28T06:56:30;10.00;71.40
78649;DHT22;67962;47.310;9.642;2024-02-28T06:58:56;9.90;71.40
78649;DHT22;67962;47.310;9.642;2024-02-28T07:01:21;10.00;71.60
78649;DHT22;67962;47.310;9.642;2024-02-28T07:03:47;9.90;71.90
78649;DHT22;67962;47.310;9.642;2024-02-28T07:06:13;10.00;72.00
78649;DHT22;67962;47.310;9.642;2024-02-28T07:08:39;10.00;71.90
78649;DHT22;67962;47.310;9.642;2024-02-28T07:11:04;10.00;71.90
78649;DHT22;67962;47.310;9.642;2024-02-28T07:13:30;10.00;72.00
78649;DHT22;67962;47.310;9.642;2024-02-28T07:15:55;10.00;72.10
78649;DHT22;67962;47.310;9.642;2024-02-28T07:18:25;10.00;72.10
78649;DHT22;67962;47.310;9.642;2024-02-28T07:20:53;10.10;72.00
78649;DHT22;67962;47.310;9.642;2024-02-28T07:23:19;10.10;71.90
78649;DHT22;67962;47.310;9.642;2024-02-28T07:25:45;10.10;71.80
78649;DHT22;67962;47.310;9.642;2024-02-28T07:28:10;10.10;71.70
78649;DHT22;67962;47.310;9.642;2024-02-28T07:30:36;10.10;71.80
78649;DHT22;67962;47.310;9.642;2024-02-28T07:33:02;10.00;72.00
78649;DHT22;67962;47.310;9.642;2024-02-28T07:35:28;10.00;71.90
78649;DHT22;67962;47.310;9.642;2024-02-28T07:37:53;10.10;71.70
78649;DHT22;67962;47.310;9.642;2024-02-28T07:40:19;10.10;71.80
78649;DHT22;67962;47.310;9.642;2024-02-28T07:42:45;10.10;71.70
78649;DHT22;67962;47.310;9.642;2024-02-28T07:45:10;10.10;71.80
78649;DHT22;67962;47.310;9.642;2024-02-28T07:47:37;10.10;71.60
78649;DHT22;67962;47.310;9.642;2024-02-28T07:50:03;10.20;71.60
78649;DHT22;67962;47.310;9.642;2024-02-28T07:52:28;10.20;71.40
78649;DHT22;67962;47.310;9.642;2024-02-28T07:54:54;10.20;71.40
78649;DHT22;67962;47.310;9.642;2024-02-28T07:57:21;10.20;71.70
78649;DHT22;67962;47.310;9.642;2024-02-28T07:59:46;10.10;71.80
78649;DHT22;67962;47.310;9.642;2024-02-28T08:02:12;10.20;71.80
78649;DHT22;67962;47.310;9.642;2024-02-28T08:04:38;10.20;71.80
78649;DHT22;67962;47.310;9.642;2024-02-28T08:07:05;10.20;72.00
78649;DHT22;67962;47.310;9.642;2024-02-28T08:09:30;10.10;72.10
78649;DHT22;67962;47.310;9.642;2024-02-28T08:11:56;10.10;72.30
78649;DHT22;67962;47.310;9.642;2024-02-28T08:14:24;10.10;72.10
78649;DHT22;67962;47.310;9.642;2024-02-28T08:16:49;10.10;72.00
78649;DHT22;67962;47.310;9.642;2024-02-28T08:19:15;10.20;71.80
78649;DHT22;67962;47.310;9.642;2024-02-28T08:21:42;10.10;71.90
78649;DHT22;67962;47.310;9.642;2024-02-28T08:24:08;10.00;72.00
78649;DHT22;67962;47.310;9.642;2024-02-28T08:26:34;10.00;72.50
78649;DHT22;67962;47.310;9.642;2024-02-28T08:29:01;10.10;72.50
78649;DHT22;67962;47.310;9.642;2024-02-28T08:31:28;10.10;72.30
78649;DHT22;67962;47.310;9.642;2024-02-28T08:33:53;10.20;72.20
78649;DHT22;67962;47.310;9.642;2024-02-28T08:36:21;10.20;72.20
78649;DHT22;67962;47.310;9.642;2024-02-28T08:38:46;10.30;71.80
78649;DHT22;67962;47.310;9.642;2024-02-28T08:41:12;10.30;71.40
78649;DHT22;67962;47.310;9.642;2024-02-28T08:43:39;10.30;71.30
78649;DHT22;67962;47.310;9.642;2024-02-28T08:46:05;10.30;71.50
78649;DHT22;67962;47.310;9.642;2024-02-28T08:48:31;10.40;71.60
78649;DHT22;67962;47.310;9.642;2024-02-28T08:50:57;10.50;71.50
78649;DHT22;67962;47.310;9.642;2024-02-28T08:53:23;10.50;71.40
78649;DHT22;67962;47.310;9.642;2024-02-28T08:55:48;10.60;71.20
78649;DHT22;67962;47.310;9.642;2024-02-28T08:58:14;10.60;71.20
78649;DHT22;67962;47.310;9.642;2024-02-28T09:00:40;10.60;71.00
78649;DHT22;67962;47.310;9.642;2024-02-28T09:03:06;10.50;70.90
78649;DHT22;67962;47.310;9.642;2024-02-28T09:05:31;10.60;70.90
78649;DHT22;67962;47.310;9.642;2024-02-28T09:07:57;10.60;71.10
78649;DHT22;67962;47.310;9.642;2024-02-28T09:10:23;10.70;70.80
78649;DHT22;67962;47.310;9.642;2024-02-28T09:12:50;10.60;70.40
78649;DHT22;67962;47.310;9.642;2024-02-28T09:15:16;10.60;70.40
78649;DHT22;67962;47.310;9.642;2024-02-28T09:17:41;10.60;69.90
78649;DHT22;67962;47.310;9.642;2024-02-28T09:20:07;10.40;70.40
78649;DHT22;67962;47.310;9.642;2024-02-28T09:22:34;10.50;70.50
78649;DHT22;67962;47.310;9.642;2024-02-28T09:25:03;10.40;70.60
78649;DHT22;67962;47.310;9.642;2024-02-28T09:27:32;10.30;71.00
78649;DHT22;67962;47.310;9.642;2024-02-28T09:29:58;10.30;71.10
78649;DHT22;67962;47.310;9.642;2024-02-28T09:32:24;10.30;71.00
78649;DHT22;67962;47.310;9.642;2024-02-28T09:34:49;10.30;71.50
78649;DHT22;67962;47.310;9.642;2024-02-28T09:37:15;10.40;71.30
78649;DHT22;67962;47.310;9.642;2024-02-28T09:39:42;10.50;71.70
78649;DHT22;67962;47.310;9.642;2024-02-28T09:42:09;10.50;70.30
78649;DHT22;67962;47.310;9.642;2024-02-28T09:44:36;10.50;70.30
78649;DHT22;67962;47.310;9.642;2024-02-28T09:47:02;10.40;70.90
78649;DHT22;67962;47.310;9.642;2024-02-28T09:49:50;10.40;71.00
78649;DHT22;67962;47.310;9.642;2024-02-28T09:52:17;10.40;70.60
78649;DHT22;67962;47.310;9.642;2024-02-28T09:54:43;10.40;71.10
78649;DHT22;67962;47.310;9.642;2024-02-28T09:57:11;10.40;70.60
78649;DHT22;67962;47.310;9.642;2024-02-28T09:59:42;10.20;70.70
78649;DHT22;67962;47.310;9.642;2024-02-28T10:02:10;10.10;71.50
78649;DHT22;67962;47.310;9.642;2024-02-28T10:04:37;10.10;71.60
78649;DHT22;67962;47.310;9.642;2024-02-28T10:13:52;10.10;71.50
78649;DHT22;67962;47.310;9.642;2024-02-28T10:16:20;10.00;72.10
78649;DHT22;67962;47.310;9.642;2024-02-28T10:18:46;10.00;72.50
78649;DHT22;67962;47.310;9.642;2024-02-28T10:21:12;10.10;72.50
78649;DHT22;67962;47.310;9.642;2024-02-28T10:23:41;10.20;72.10
78649;DHT22;67962;47.310;9.642;2024-02-28T10:26:09;10.20;71.90
78649;DHT22;67962;47.310;9.642;2024-02-28T10:28:40;10.20;71.80
78649;DHT22;67962;47.310;9.642;2024-02-28T10:31:06;10.30;71.70
78649;DHT22;67962;47.310;9.642;2024-02-28T10:33:33;10.30;71.80
78649;DHT22;67962;47.310;9.642;2024-02-28T10:36:00;10.30;71.40
78649;DHT22;67962;47.310;9.642;2024-02-28T10:38:27;10.40;71.70
78649;DHT22;67962;47.310;9.642;2024-02-28T10:40:56;10.50;71.70
78649;DHT22;67962;47.310;9.642;2024-02-28T10:43:23;10.50;71.70
78649;DHT22;67962;47.310;9.642;2024-02-28T10:45:51;10.60;71.30
78649;DHT22;67962;47.310;9.642;2024-02-28T10:48:18;10.70;70.60
78649;DHT22;67962;47.310;9.642;2024-02-28T10:50:46;10.70;70.90
78649;DHT22;67962;47.310;9.642;2024-02-28T10:53:14;10.70;70.70
78649;DHT22;67962;47.310;9.642;2024-02-28T10:55:41;10.70;70.70
78649;DHT22;67962;47.310;9.642;2024-02-28T10:58:10;10.70;71.00
78649;DHT22;67962;47.310;9.642;2024-02-28T11:00:37;10.80;70.40
78649;DHT22;67962;47.310;9.642;2024-02-28T11:03:15;10.80;70.40
78649;DHT22;67962;47.310;9.642;2024-02-28T11:05:43;10.80;70.40
78649;DHT22;67962;47.310;9.642;2024-02-28T11:08:21;10.80;70.40
78649;DHT22;67962;47.310;9.642;2024-02-28T11:10:54;10.90;69.80
78649;DHT22;67962;47.310;9.642;2024-02-28T11:13:24;10.80;70.20
78649;DHT22;67962;47.310;9.642;2024-02-28T11:15:51;10.90;70.30
78649;DHT22;67962;47.310;9.642;2024-02-28T11:18:17;11.10;70.30
78649;DHT22;67962;47.310;9.642;2024-02-28T11:20:43;11.10;70.10
78649;DHT22;67962;47.310;9.642;2024-02-28T11:23:10;11.20;70.80
78649;DHT22;67962;47.310;9.642;2024-02-28T11:25:36;11.40;69.60
78649;DHT22;67962;47.310;9.642;2024-02-28T11:28:02;11.50;69.10
78649;DHT22;67962;47.310;9.642;2024-02-28T11:30:27;11.60;69.10
78649;DHT22;67962;47.310;9.642;2024-02-28T11:32:54;11.70;69.00
78649;DHT22;67962;47.310;9.642;2024-02-28T11:35:20;11.80;68.40
78649;DHT22;67962;47.310;9.642;2024-02-28T11:37:46;11.80;68.00
78649;DHT22;67962;47.310;9.642;2024-02-28T11:40:14;11.90;68.30
78649;DHT22;67962;47.310;9.642;2024-02-28T11:42:40;12.00;68.00
78649;DHT22;67962;47.310;9.642;2024-02-28T11:45:09;12.10;67.30
78649;DHT22;67962;47.310;9.642;2024-02-28T11:47:35;12.10;67.00
78649;DHT22;67962;47.310;9.642;2024-02-28T11:50:02;12.10;66.70
78649;DHT22;67962;47.310;9.642;2024-02-28T11:52:31;12.10;66.50
78649;DHT22;67962;47.310;9.642;2024-02-28T11:54:56;12.10;66.90
78649;DHT22;67962;47.310;9.642;2024-02-28T11:57:22;12.00;66.50
78649;DHT22;67962;47.310;9.642;2024-02-28T11:59:48;12.00;66.70
78649;DHT22;67962;47.310;9.642;2024-02-28T12:02:15;11.90;66.80
78649;DHT22;67962;47.310;9.642;2024-02-28T12:04:42;11.80;67.00
78649;DHT22;67962;47.310;9.642;2024-02-28T12:07:11;11.90;67.00
78649;DHT22;67962;47.310;9.642;2024-02-28T12:09:37;11.80;66.90
78649;DHT22;67962;47.310;9.642;2024-02-28T12:12:06;11.80;66.00
78649;DHT22;67962;47.310;9.642;2024-02-28T12:14:32;11.80;66.60
78649;DHT22;67962;47.310;9.642;2024-02-28T12:17:01;11.80;66.70
78649;DHT22;67962;47.310;9.642;2024-02-28T12:19:28;11.80;66.80
78649;DHT22;67962;47.310;9.642;2024-02-28T12:21:54;11.90;66.00
78649;DHT22;67962;47.310;9.642;2024-02-28T12:24:20;11.90;65.70
78649;DHT22;67962;47.310;9.642;2024-02-28T12:26:46;11.90;66.20
78649;DHT22;67962;47.310;9.642;2024-02-28T12:29:12;11.90;66.70
78649;DHT22;67962;47.310;9.642;2024-02-28T12:31:38;12.00;66.40
78649;DHT22;67962;47.310;9.642;2024-02-28T12:34:04;11.90;66.50
78649;DHT22;67962;47.310;9.642;2024-02-28T12:36:30;11.90;66.70
78649;DHT22;67962;47.310;9.642;2024-02-28T12:38:58;11.90;66.30
78649;DHT22;67962;47.310;9.642;2024-02-28T12:41:28;11.80;65.90
78649;DHT22;67962;47.310;9.642;2024-02-28T12:43:54;11.70;66.30
78649;DHT22;67962;47.310;9.642;2024-02-28T12:46:20;11.80;66.60
78649;DHT22;67962;47.310;9.642;2024-02-28T12:48:45;11.70;66.50
78649;DHT22;67962;47.310;9.642;2024-02-28T12:51:42;11.70;66.40
78649;DHT22;67962;47.310;9.642;2024-02-28T12:54:09;11.70;66.90
78649;DHT22;67962;47.310;9.642;2024-02-28T12:56:39;11.50;67.20
78649;DHT22;67962;47.310;9.642;2024-02-28T12:59:05;11.50;67.70
78649;DHT22;67962;47.310;9.642;2024-02-28T13:01:33;11.40;67.70
78649;DHT22;67962;47.310;9.642;2024-02-28T13:03:58;11.50;67.40
78649;DHT22;67962;47.310;9.642;2024-02-28T13:06:24;11.50;67.20
78649;DHT22;67962;47.310;9.642;2024-02-28T13:08:50;11.40;67.60
78649;DHT22;67962;47.310;9.642;2024-02-28T13:11:23;11.40;68.00
78649;DHT22;67962;47.310;9.642;2024-02-28T13:13:49;11.40;68.30
78649;DHT22;67962;47.310;9.642;2024-02-28T13:16:16;11.50;67.90
78649;DHT22;67962;47.310;9.642;2024-02-28T13:18:42;11.40;68.00
78649;DHT22;67962;47.310;9.642;2024-02-28T13:21:08;11.50;68.20
78649;DHT22;67962;47.310;9.642;2024-02-28T13:23:34;11.50;68.70
78649;DHT22;67962;47.310;9.642;2024-02-28T13:26:01;11.60;67.80
78649;DHT22;67962;47.310;9.642;2024-02-28T13:28:27;11.60;68.20
78649;DHT22;67962;47.310;9.642;2024-02-28T13:30:59;11.60;68.20
78649;DHT22;67962;47.310;9.642;2024-02-28T13:33:26;11.50;68.20
78649;DHT22;67962;47.310;9.642;2024-02-28T13:35:54;11.50;68.30
78649;DHT22;67962;47.310;9.642;2024-02-28T13:38:20;11.60;67.50
78649;DHT22;67962;47.310;9.642;2024-02-28T13:40:47;11.40;68.20
78649;DHT22;67962;47.310;9.642;2024-02-28T13:43:13;11.40;68.80
78649;DHT22;67962;47.310;9.642;2024-02-28T13:45:39;11.50;69.00
78649;DHT22;67962;47.310;9.642;2024-02-28T13:48:18;11.50;68.50
78649;DHT22;67962;47.310;9.642;2024-02-28T13:50:46;11.40;68.20
78649;DHT22;67962;47.310;9.642;2024-02-28T13:53:12;11.30;68.80
78649;DHT22;67962;47.310;9.642;2024-02-28T13:55:38;11.30;68.70
78649;DHT22;67962;47.310;9.642;2024-02-28T13:58:05;11.30;68.80
78649;DHT22;67962;47.310;9.642;2024-02-28T14:00:31;11.00;68.40
78649;DHT22;67962;47.310;9.642;2024-02-28T14:02:57;10.90;69.30
78649;DHT22;67962;47.310;9.642;2024-02-28T14:05:23;10.90;69.30
78649;DHT22;67962;47.310;9.642;2024-02-28T14:07:48;10.80;69.10
78649;DHT22;67962;47.310;9.642;2024-02-28T14:10:15;10.70;69.70
78649;DHT22;67962;47.310;9.642;2024-02-28T14:12:41;10.60;70.60
78649;DHT22;67962;47.310;9.642;2024-02-28T14:15:07;10.60;70.40
78649;DHT22;67962;47.310;9.642;2024-02-28T14:17:34;10.60;70.00
78649;DHT22;67962;47.310;9.642;2024-02-28T14:20:00;10.70;70.10
78649;DHT22;67962;47.310;9.642;2024-02-28T14:22:26;10.70;70.10
78649;DHT22;67962;47.310;9.642;2024-02-28T14:24:51;10.70;70.00
78649;DHT22;67962;47.310;9.642;2024-02-28T14:27:17;10.60;70.10
78649;DHT22;67962;47.310;9.642;2024-02-28T14:29:45;10.60;70.30
78649;DHT22;67962;47.310;9.642;2024-02-28T14:32:11;10.60;69.70
78649;DHT22;67962;47.310;9.642;2024-02-28T14:34:37;10.60;70.20
78649;DHT22;67962;47.310;9.642;2024-02-28T14:37:03;10.70;70.30
78649;DHT22;67962;47.310;9.642;2024-02-28T14:39:29;10.70;70.20
78649;DHT22;67962;47.310;9.642;2024-02-28T14:41:55;10.80;69.90
78649;DHT22;67962;47.310;9.642;2024-02-28T14:44:21;10.70;69.90
78649;DHT22;67962;47.310;9.642;2024-02-28T14:46:47;10.80;69.80
78649;DHT22;67962;47.310;9.642;2024-02-28T14:49:12;10.70;69.80
78649;DHT22;67962;47.310;9.642;2024-02-28T14:51:38;10.70;70.10
78649;DHT22;67962;47.310;9.642;2024-02-28T14:54:04;10.70;70.10
78649;DHT22;67962;47.310;9.642;2024-02-28T14:56:29;10.70;69.70
78649;DHT22;67962;47.310;9.642;2024-02-28T14:58:55;10.70;69.90
78649;DHT22;67962;47.310;9.642;2024-02-28T15:01:21;10.70;69.70
78649;DHT22;67962;47.310;9.642;2024-02-28T15:03:49;10.50;70.00
78649;DHT22;67962;47.310;9.642;2024-02-28T15:06:15;10.40;70.50
78649;DHT22;67962;47.310;9.642;2024-02-28T15:08:41;10.30;70.70
78649;DHT22;67962;47.310;9.642;2024-02-28T15:11:07;10.30;70.80
78649;DHT22;67962;47.310;9.642;2024-02-28T15:13:33;10.50;70.30
78649;DHT22;67962;47.310;9.642;2024-02-28T15:15:59;10.40;70.40
78649;DHT22;67962;47.310;9.642;2024-02-28T15:18:25;10.40;70.30
78649;DHT22;67962;47.310;9.642;2024-02-28T15:20:51;10.40;70.50
78649;DHT22;67962;47.310;9.642;2024-02-28T15:23:19;10.50;70.50
78649;DHT22;67962;47.310;9.642;2024-02-28T15:25:47;10.50;70.50
78649;DHT22;67962;47.310;9.642;2024-02-28T15:28:13;10.50;70.30
78649;DHT22;67962;47.310;9.642;2024-02-28T15:30:39;10.40;70.40
78649;DHT22;67962;47.310;9.642;2024-02-28T15:33:05;10.50;70.60